Aviation Digital Data Service (ADDS)

Output produced by METARs form (2251 UTC 23 March 2019)
found at http://www.aviationweather.gov/metar/data/
 
METAR text: VVCR 232230Z 00000KT 9999 -RA SCT015 SCT050 27/25 Q1012 NOSIG
Conditions at: VVCR (CAM RANH BAY , VN) observed 2230 UTC 23 March 2019
Temperature: 27.0°C (81°F)
Dewpoint: 25.0°C (77°F) [RH = 89%]
Pressure (altimeter): 29.88 inches Hg (1012.0 mb)
Winds: calm
Visibility: 6 or more miles (10+ km)
Ceiling: at least 12,000 feet AGL
Clouds: scattered clouds at 1500 feet AGL
scattered clouds at 5000 feet AGL
Weather: -RA  (light rain)

METAR text: VVCR 232200Z 23002KT 9999 FEW015 SCT050 26/24 Q1012 NOSIG
Conditions at: VVCR (CAM RANH BAY , VN) observed 2200 UTC 23 March 2019
Temperature: 26.0°C (79°F)
Dewpoint: 24.0°C (75°F) [RH = 89%]
Pressure (altimeter): 29.88 inches Hg (1012.0 mb)
Winds: from the SW (230 degrees) at 2 MPH (2 knots; 1.0 m/s)
Visibility: 6 or more miles (10+ km)
Ceiling: at least 12,000 feet AGL
Clouds: few clouds at 1500 feet AGL
scattered clouds at 5000 feet AGL
Weather: no significant weather observed at this time

METAR text: VVCR 232130Z 00000KT 9999 FEW015 SCT050 26/24 Q1011 NOSIG
Conditions at: VVCR (CAM RANH BAY , VN) observed 2130 UTC 23 March 2019
Temperature: 26.0°C (79°F)
Dewpoint: 24.0°C (75°F) [RH = 89%]
Pressure (altimeter): 29.85 inches Hg (1011.0 mb)
Winds: calm
Visibility: 6 or more miles (10+ km)
Ceiling: at least 12,000 feet AGL
Clouds: few clouds at 1500 feet AGL
scattered clouds at 5000 feet AGL
Weather: no significant weather observed at this time

METAR text: VVCR 232100Z 21001KT 9999 FEW015 SCT050 26/24 Q1011 NOSIG
Conditions at: VVCR (CAM RANH BAY , VN) observed 2100 UTC 23 March 2019
Temperature: 26.0°C (79°F)
Dewpoint: 24.0°C (75°F) [RH = 89%]
Pressure (altimeter): 29.85 inches Hg (1011.0 mb)
Winds: from the SSW (210 degrees) at 1 MPH (1 knots; 0.5 m/s)
Visibility: 6 or more miles (10+ km)
Ceiling: at least 12,000 feet AGL
Clouds: few clouds at 1500 feet AGL
scattered clouds at 5000 feet AGL
Weather: no significant weather observed at this time

METAR text: VVCR 232030Z 13009KT 9999 FEW015 SCT050 27/25 Q1011 NOSIG
Conditions at: VVCR (CAM RANH BAY , VN) observed 2030 UTC 23 March 2019
Temperature: 27.0°C (81°F)
Dewpoint: 25.0°C (77°F) [RH = 89%]
Pressure (altimeter): 29.85 inches Hg (1011.0 mb)
Winds: from the SE (130 degrees) at 10 MPH (9 knots; 4.6 m/s)
Visibility: 6 or more miles (10+ km)
Ceiling: at least 12,000 feet AGL
Clouds: few clouds at 1500 feet AGL
scattered clouds at 5000 feet AGL
Weather: no significant weather observed at this time

METAR text: VVCR 232000Z 10003KT 9999 FEW015 SCT050 27/25 Q1011 NOSIG
Conditions at: VVCR (CAM RANH BAY , VN) observed 2000 UTC 23 March 2019
Temperature: 27.0°C (81°F)
Dewpoint: 25.0°C (77°F) [RH = 89%]
Pressure (altimeter): 29.85 inches Hg (1011.0 mb)
Winds: from the E (100 degrees) at 3 MPH (3 knots; 1.5 m/s)
Visibility: 6 or more miles (10+ km)
Ceiling: at least 12,000 feet AGL
Clouds: few clouds at 1500 feet AGL
scattered clouds at 5000 feet AGL
Weather: no significant weather observed at this time

METAR text: VVCR 231930Z 13005KT 9999 FEW015 SCT050 26/24 Q1011 NOSIG
Conditions at: VVCR (CAM RANH BAY , VN) observed 1930 UTC 23 March 2019
Temperature: 26.0°C (79°F)
Dewpoint: 24.0°C (75°F) [RH = 89%]
Pressure (altimeter): 29.85 inches Hg (1011.0 mb)
Winds: from the SE (130 degrees) at 6 MPH (5 knots; 2.6 m/s)
Visibility: 6 or more miles (10+ km)
Ceiling: at least 12,000 feet AGL
Clouds: few clouds at 1500 feet AGL
scattered clouds at 5000 feet AGL
Weather: no significant weather observed at this time

METAR text: VVCR 231900Z 05003KT 9999 FEW015 SCT050 28/26 Q1012 NOSIG
Conditions at: VVCR (CAM RANH BAY , VN) observed 1900 UTC 23 March 2019
Temperature: 28.0°C (82°F)
Dewpoint: 26.0°C (79°F) [RH = 89%]
Pressure (altimeter): 29.88 inches Hg (1012.0 mb)
Winds: from the NE (50 degrees) at 3 MPH (3 knots; 1.5 m/s)
Visibility: 6 or more miles (10+ km)
Ceiling: at least 12,000 feet AGL
Clouds: few clouds at 1500 feet AGL
scattered clouds at 5000 feet AGL
Weather: no significant weather observed at this time

METAR text: VVCR 231830Z 08003KT 9999 FEW015 SCT050 28/26 Q1012 NOSIG
Conditions at: VVCR (CAM RANH BAY , VN) observed 1830 UTC 23 March 2019
Temperature: 28.0°C (82°F)
Dewpoint: 26.0°C (79°F) [RH = 89%]
Pressure (altimeter): 29.88 inches Hg (1012.0 mb)
Winds: from the E (80 degrees) at 3 MPH (3 knots; 1.5 m/s)
Visibility: 6 or more miles (10+ km)
Ceiling: at least 12,000 feet AGL
Clouds: few clouds at 1500 feet AGL
scattered clouds at 5000 feet AGL
Weather: no significant weather observed at this time

METAR text: VVCR 231800Z 11003KT 9999 FEW015 SCT050 28/26 Q1012 NOSIG
Conditions at: VVCR (CAM RANH BAY , VN) observed 1800 UTC 23 March 2019
Temperature: 28.0°C (82°F)
Dewpoint: 26.0°C (79°F) [RH = 89%]
Pressure (altimeter): 29.88 inches Hg (1012.0 mb)
Winds: from the ESE (110 degrees) at 3 MPH (3 knots; 1.5 m/s)
Visibility: 6 or more miles (10+ km)
Ceiling: at least 12,000 feet AGL
Clouds: few clouds at 1500 feet AGL
scattered clouds at 5000 feet AGL
Weather: no significant weather observed at this time

METAR text: VVCR 231730Z 11005KT 9999 FEW015 SCT050 29/26 Q1012 NOSIG
Conditions at: VVCR (CAM RANH BAY , VN) observed 1730 UTC 23 March 2019
Temperature: 29.0°C (84°F)
Dewpoint: 26.0°C (79°F) [RH = 84%]
Pressure (altimeter): 29.88 inches Hg (1012.0 mb)
Winds: from the ESE (110 degrees) at 6 MPH (5 knots; 2.6 m/s)
Visibility: 6 or more miles (10+ km)
Ceiling: at least 12,000 feet AGL
Clouds: few clouds at 1500 feet AGL
scattered clouds at 5000 feet AGL
Weather: no significant weather observed at this time

METAR text: VVCR 231700Z 10006KT 9999 FEW015 29/26 Q1013 NOSIG
Conditions at: VVCR (CAM RANH BAY , VN) observed 1700 UTC 23 March 2019
Temperature: 29.0°C (84°F)
Dewpoint: 26.0°C (79°F) [RH = 84%]
Pressure (altimeter): 29.91 inches Hg (1013.0 mb)
Winds: from the E (100 degrees) at 7 MPH (6 knots; 3.1 m/s)
Visibility: 6 or more miles (10+ km)
Ceiling: at least 12,000 feet AGL
Clouds: few clouds at 1500 feet AGL
Weather: no significant weather observed at this time

METAR text: VVCR 231630Z 11004KT 9999 FEW015 29/26 Q1013 NOSIG
Conditions at: VVCR (CAM RANH BAY , VN) observed 1630 UTC 23 March 2019
Temperature: 29.0°C (84°F)
Dewpoint: 26.0°C (79°F) [RH = 84%]
Pressure (altimeter): 29.91 inches Hg (1013.0 mb)
Winds: from the ESE (110 degrees) at 5 MPH (4 knots; 2.1 m/s)
Visibility: 6 or more miles (10+ km)
Ceiling: at least 12,000 feet AGL
Clouds: few clouds at 1500 feet AGL
Weather: no significant weather observed at this time

METAR text: VVCR 231600Z 10004KT 9999 FEW015 29/26 Q1013 NOSIG
Conditions at: VVCR (CAM RANH BAY , VN) observed 1600 UTC 23 March 2019
Temperature: 29.0°C (84°F)
Dewpoint: 26.0°C (79°F) [RH = 84%]
Pressure (altimeter): 29.91 inches Hg (1013.0 mb)
Winds: from the E (100 degrees) at 5 MPH (4 knots; 2.1 m/s)
Visibility: 6 or more miles (10+ km)
Ceiling: at least 12,000 feet AGL
Clouds: few clouds at 1500 feet AGL
Weather: no significant weather observed at this time

METAR text: VVCR 231530Z 11004KT 9999 FEW015 29/26 Q1013 NOSIG
Conditions at: VVCR (CAM RANH BAY , VN) observed 1530 UTC 23 March 2019
Temperature: 29.0°C (84°F)
Dewpoint: 26.0°C (79°F) [RH = 84%]
Pressure (altimeter): 29.91 inches Hg (1013.0 mb)
Winds: from the ESE (110 degrees) at 5 MPH (4 knots; 2.1 m/s)
Visibility: 6 or more miles (10+ km)
Ceiling: at least 12,000 feet AGL
Clouds: few clouds at 1500 feet AGL
Weather: no significant weather observed at this time

METAR text: VVCR 231500Z 11004KT 9999 FEW015 29/26 Q1013 NOSIG
Conditions at: VVCR (CAM RANH BAY , VN) observed 1500 UTC 23 March 2019
Temperature: 29.0°C (84°F)
Dewpoint: 26.0°C (79°F) [RH = 84%]
Pressure (altimeter): 29.91 inches Hg (1013.0 mb)
Winds: from the ESE (110 degrees) at 5 MPH (4 knots; 2.1 m/s)
Visibility: 6 or more miles (10+ km)
Ceiling: at least 12,000 feet AGL
Clouds: few clouds at 1500 feet AGL
Weather: no significant weather observed at this time

METAR text: VVCR 231430Z 11003KT 9999 SCT015 29/26 Q1013 NOSIG
Conditions at: VVCR (CAM RANH BAY , VN) observed 1430 UTC 23 March 2019
Temperature: 29.0°C (84°F)
Dewpoint: 26.0°C (79°F) [RH = 84%]
Pressure (altimeter): 29.91 inches Hg (1013.0 mb)
Winds: from the ESE (110 degrees) at 3 MPH (3 knots; 1.5 m/s)
Visibility: 6 or more miles (10+ km)
Ceiling: at least 12,000 feet AGL
Clouds: scattered clouds at 1500 feet AGL
Weather: no significant weather observed at this time

METAR text: VVCR 231400Z 13003KT 9999 SCT015 29/26 Q1013 NOSIG
Conditions at: VVCR (CAM RANH BAY , VN) observed 1400 UTC 23 March 2019
Temperature: 29.0°C (84°F)
Dewpoint: 26.0°C (79°F) [RH = 84%]
Pressure (altimeter): 29.91 inches Hg (1013.0 mb)
Winds: from the SE (130 degrees) at 3 MPH (3 knots; 1.5 m/s)
Visibility: 6 or more miles (10+ km)
Ceiling: at least 12,000 feet AGL
Clouds: scattered clouds at 1500 feet AGL
Weather: no significant weather observed at this time

METAR text: VVCR 231330Z 14003KT 9999 SCT015 29/26 Q1012 NOSIG
Conditions at: VVCR (CAM RANH BAY , VN) observed 1330 UTC 23 March 2019
Temperature: 29.0°C (84°F)
Dewpoint: 26.0°C (79°F) [RH = 84%]
Pressure (altimeter): 29.88 inches Hg (1012.0 mb)
Winds: from the SE (140 degrees) at 3 MPH (3 knots; 1.5 m/s)
Visibility: 6 or more miles (10+ km)
Ceiling: at least 12,000 feet AGL
Clouds: scattered clouds at 1500 feet AGL
Weather: no significant weather observed at this time

METAR text: VVCR 231300Z 14003KT 9999 SCT015 29/26 Q1012 NOSIG
Conditions at: VVCR (CAM RANH BAY , VN) observed 1300 UTC 23 March 2019
Temperature: 29.0°C (84°F)
Dewpoint: 26.0°C (79°F) [RH = 84%]
Pressure (altimeter): 29.88 inches Hg (1012.0 mb)
Winds: from the SE (140 degrees) at 3 MPH (3 knots; 1.5 m/s)
Visibility: 6 or more miles (10+ km)
Ceiling: at least 12,000 feet AGL
Clouds: scattered clouds at 1500 feet AGL
Weather: no significant weather observed at this time

METAR text: VVCR 231230Z 07005KT 9999 SCT015 29/26 Q1011 NOSIG
Conditions at: VVCR (CAM RANH BAY , VN) observed 1230 UTC 23 March 2019
Temperature: 29.0°C (84°F)
Dewpoint: 26.0°C (79°F) [RH = 84%]
Pressure (altimeter): 29.85 inches Hg (1011.0 mb)
Winds: from the ENE (70 degrees) at 6 MPH (5 knots; 2.6 m/s)
Visibility: 6 or more miles (10+ km)
Ceiling: at least 12,000 feet AGL
Clouds: scattered clouds at 1500 feet AGL
Weather: no significant weather observed at this time

METAR text: VVCR 231200Z 13005KT 9999 SCT015 29/26 Q1011 NOSIG
Conditions at: VVCR (CAM RANH BAY , VN) observed 1200 UTC 23 March 2019
Temperature: 29.0°C (84°F)
Dewpoint: 26.0°C (79°F) [RH = 84%]
Pressure (altimeter): 29.85 inches Hg (1011.0 mb)
Winds: from the SE (130 degrees) at 6 MPH (5 knots; 2.6 m/s)
Visibility: 6 or more miles (10+ km)
Ceiling: at least 12,000 feet AGL
Clouds: scattered clouds at 1500 feet AGL
Weather: no significant weather observed at this time

METAR text: VVCR 231130Z 13005KT 9999 SCT015 29/26 Q1011 NOSIG
Conditions at: VVCR (CAM RANH BAY , VN) observed 1130 UTC 23 March 2019
Temperature: 29.0°C (84°F)
Dewpoint: 26.0°C (79°F) [RH = 84%]
Pressure (altimeter): 29.85 inches Hg (1011.0 mb)
Winds: from the SE (130 degrees) at 6 MPH (5 knots; 2.6 m/s)
Visibility: 6 or more miles (10+ km)
Ceiling: at least 12,000 feet AGL
Clouds: scattered clouds at 1500 feet AGL
Weather: no significant weather observed at this time

METAR text: VVCR 231100Z 13006KT 9999 SCT015 29/26 Q1011 NOSIG
Conditions at: VVCR (CAM RANH BAY , VN) observed 1100 UTC 23 March 2019
Temperature: 29.0°C (84°F)
Dewpoint: 26.0°C (79°F) [RH = 84%]
Pressure (altimeter): 29.85 inches Hg (1011.0 mb)
Winds: from the SE (130 degrees) at 7 MPH (6 knots; 3.1 m/s)
Visibility: 6 or more miles (10+ km)
Ceiling: at least 12,000 feet AGL
Clouds: scattered clouds at 1500 feet AGL
Weather: no significant weather observed at this time

METAR text: VVCR 231030Z 13007KT 9999 SCT015 30/26 Q1010 NOSIG
Conditions at: VVCR (CAM RANH BAY , VN) observed 1030 UTC 23 March 2019
Temperature: 30.0°C (86°F)
Dewpoint: 26.0°C (79°F) [RH = 79%]
Pressure (altimeter): 29.82 inches Hg (1010.0 mb)
Winds: from the SE (130 degrees) at 8 MPH (7 knots; 3.6 m/s)
Visibility: 6 or more miles (10+ km)
Ceiling: at least 12,000 feet AGL
Clouds: scattered clouds at 1500 feet AGL
Weather: no significant weather observed at this time

METAR text: VVCR 231000Z 13007KT 9999 SCT015 30/// Q1010 NOSIG
Conditions at: VVCR (CAM RANH BAY , VN) observed 1000 UTC 23 March 2019
Temperature: missing
Dewpoint: missing
Pressure (altimeter): 29.82 inches Hg (1010.0 mb)
Winds: from the SE (130 degrees) at 8 MPH (7 knots; 3.6 m/s)
Visibility: 6 or more miles (10+ km)
Ceiling: at least 12,000 feet AGL
Clouds: scattered clouds at 1500 feet AGL
Weather: no significant weather observed at this time

METAR text: VVCR 230930Z 12008KT 9999 SCT015 31/26 Q1010 NOSIG
Conditions at: VVCR (CAM RANH BAY , VN) observed 0930 UTC 23 March 2019
Temperature: 31.0°C (88°F)
Dewpoint: 26.0°C (79°F) [RH = 75%]
Pressure (altimeter): 29.82 inches Hg (1010.0 mb)
Winds: from the ESE (120 degrees) at 9 MPH (8 knots; 4.1 m/s)
Visibility: 6 or more miles (10+ km)
Ceiling: at least 12,000 feet AGL
Clouds: scattered clouds at 1500 feet AGL
Weather: no significant weather observed at this time

METAR text: VVCR 230900Z 13010KT 9999 SCT015 32/26 Q1010 NOSIG
Conditions at: VVCR (CAM RANH BAY , VN) observed 0900 UTC 23 March 2019
Temperature: 32.0°C (90°F)
Dewpoint: 26.0°C (79°F) [RH = 71%]
Pressure (altimeter): 29.82 inches Hg (1010.0 mb)
Winds: from the SE (130 degrees) at 12 MPH (10 knots; 5.1 m/s)
Visibility: 6 or more miles (10+ km)
Ceiling: at least 12,000 feet AGL
Clouds: scattered clouds at 1500 feet AGL
Weather: no significant weather observed at this time

METAR text: VVCR 230830Z 13011KT 9999 SCT015 32/25 Q1010 NOSIG
Conditions at: VVCR (CAM RANH BAY , VN) observed 0830 UTC 23 March 2019
Temperature: 32.0°C (90°F)
Dewpoint: 25.0°C (77°F) [RH = 67%]
Pressure (altimeter): 29.82 inches Hg (1010.0 mb)
Winds: from the SE (130 degrees) at 13 MPH (11 knots; 5.7 m/s)
Visibility: 6 or more miles (10+ km)
Ceiling: at least 12,000 feet AGL
Clouds: scattered clouds at 1500 feet AGL
Weather: no significant weather observed at this time

METAR text: VVCR 230800Z 13009KT 9999 SCT015 32/25 Q1010 NOSIG
Conditions at: VVCR (CAM RANH BAY , VN) observed 0800 UTC 23 March 2019
Temperature: 32.0°C (90°F)
Dewpoint: 25.0°C (77°F) [RH = 67%]
Pressure (altimeter): 29.82 inches Hg (1010.0 mb)
Winds: from the SE (130 degrees) at 10 MPH (9 knots; 4.6 m/s)
Visibility: 6 or more miles (10+ km)
Ceiling: at least 12,000 feet AGL
Clouds: scattered clouds at 1500 feet AGL
Weather: no significant weather observed at this time

METAR text: VVCR 230730Z 14010KT 9999 SCT015 32/25 Q1010 NOSIG
Conditions at: VVCR (CAM RANH BAY , VN) observed 0730 UTC 23 March 2019
Temperature: 32.0°C (90°F)
Dewpoint: 25.0°C (77°F) [RH = 67%]
Pressure (altimeter): 29.82 inches Hg (1010.0 mb)
Winds: from the SE (140 degrees) at 12 MPH (10 knots; 5.1 m/s)
Visibility: 6 or more miles (10+ km)
Ceiling: at least 12,000 feet AGL
Clouds: scattered clouds at 1500 feet AGL
Weather: no significant weather observed at this time

METAR text: VVCR 230700Z 13012KT 9999 SCT015 32/25 Q1011 NOSIG
Conditions at: VVCR (CAM RANH BAY , VN) observed 0700 UTC 23 March 2019
Temperature: 32.0°C (90°F)
Dewpoint: 25.0°C (77°F) [RH = 67%]
Pressure (altimeter): 29.85 inches Hg (1011.0 mb)
Winds: from the SE (130 degrees) at 14 MPH (12 knots; 6.2 m/s)
Visibility: 6 or more miles (10+ km)
Ceiling: at least 12,000 feet AGL
Clouds: scattered clouds at 1500 feet AGL
Weather: no significant weather observed at this time

METAR text: VVCR 230630Z 13011KT 9999 SCT015 32/25 Q1011 NOSIG
Conditions at: VVCR (CAM RANH BAY , VN) observed 0630 UTC 23 March 2019
Temperature: 32.0°C (90°F)
Dewpoint: 25.0°C (77°F) [RH = 67%]
Pressure (altimeter): 29.85 inches Hg (1011.0 mb)
Winds: from the SE (130 degrees) at 13 MPH (11 knots; 5.7 m/s)
Visibility: 6 or more miles (10+ km)
Ceiling: at least 12,000 feet AGL
Clouds: scattered clouds at 1500 feet AGL
Weather: no significant weather observed at this time

METAR text: VVCR 230600Z 12011KT 9999 SCT015 32/25 Q1011 NOSIG
Conditions at: VVCR (CAM RANH BAY , VN) observed 0600 UTC 23 March 2019
Temperature: 32.0°C (90°F)
Dewpoint: 25.0°C (77°F) [RH = 67%]
Pressure (altimeter): 29.85 inches Hg (1011.0 mb)
Winds: from the ESE (120 degrees) at 13 MPH (11 knots; 5.7 m/s)
Visibility: 6 or more miles (10+ km)
Ceiling: at least 12,000 feet AGL
Clouds: scattered clouds at 1500 feet AGL
Weather: no significant weather observed at this time

METAR text: VVCR 230530Z 12010KT 9999 SCT015 32/25 Q1011 NOSIG
Conditions at: VVCR (CAM RANH BAY , VN) observed 0530 UTC 23 March 2019
Temperature: 32.0°C (90°F)
Dewpoint: 25.0°C (77°F) [RH = 67%]
Pressure (altimeter): 29.85 inches Hg (1011.0 mb)
Winds: from the ESE (120 degrees) at 12 MPH (10 knots; 5.1 m/s)
Visibility: 6 or more miles (10+ km)
Ceiling: at least 12,000 feet AGL
Clouds: scattered clouds at 1500 feet AGL
Weather: no significant weather observed at this time

METAR text: VVCR 230500Z 12009KT 9999 SCT015 33/26 Q1012 NOSIG
Conditions at: VVCR (CAM RANH BAY , VN) observed 0500 UTC 23 March 2019
Temperature: 33.0°C (91°F)
Dewpoint: 26.0°C (79°F) [RH = 67%]
Pressure (altimeter): 29.88 inches Hg (1012.0 mb)
Winds: from the ESE (120 degrees) at 10 MPH (9 knots; 4.6 m/s)
Visibility: 6 or more miles (10+ km)
Ceiling: at least 12,000 feet AGL
Clouds: scattered clouds at 1500 feet AGL
Weather: no significant weather observed at this time

METAR text: VVCR 230430Z 12008KT 9999 SCT015 32/25 Q1013 NOSIG
Conditions at: VVCR (CAM RANH BAY , VN) observed 0430 UTC 23 March 2019
Temperature: 32.0°C (90°F)
Dewpoint: 25.0°C (77°F) [RH = 67%]
Pressure (altimeter): 29.91 inches Hg (1013.0 mb)
Winds: from the ESE (120 degrees) at 9 MPH (8 knots; 4.1 m/s)
Visibility: 6 or more miles (10+ km)
Ceiling: at least 12,000 feet AGL
Clouds: scattered clouds at 1500 feet AGL
Weather: no significant weather observed at this time

METAR text: VVCR 230400Z 12008KT 9999 SCT015 31/25 Q1013 NOSIG
Conditions at: VVCR (CAM RANH BAY , VN) observed 0400 UTC 23 March 2019
Temperature: 31.0°C (88°F)
Dewpoint: 25.0°C (77°F) [RH = 71%]
Pressure (altimeter): 29.91 inches Hg (1013.0 mb)
Winds: from the ESE (120 degrees) at 9 MPH (8 knots; 4.1 m/s)
Visibility: 6 or more miles (10+ km)
Ceiling: at least 12,000 feet AGL
Clouds: scattered clouds at 1500 feet AGL
Weather: no significant weather observed at this time

METAR text: VVCR 230330Z 12007KT 9999 SCT015 32/25 Q1013 NOSIG
Conditions at: VVCR (CAM RANH BAY , VN) observed 0330 UTC 23 March 2019
Temperature: 32.0°C (90°F)
Dewpoint: 25.0°C (77°F) [RH = 67%]
Pressure (altimeter): 29.91 inches Hg (1013.0 mb)
Winds: from the ESE (120 degrees) at 8 MPH (7 knots; 3.6 m/s)
Visibility: 6 or more miles (10+ km)
Ceiling: at least 12,000 feet AGL
Clouds: scattered clouds at 1500 feet AGL
Weather: no significant weather observed at this time

METAR text: VVCR 230300Z 11006KT 9999 SCT015 32/25 Q1013 NOSIG
Conditions at: VVCR (CAM RANH BAY , VN) observed 0300 UTC 23 March 2019
Temperature: 32.0°C (90°F)
Dewpoint: 25.0°C (77°F) [RH = 67%]
Pressure (altimeter): 29.91 inches Hg (1013.0 mb)
Winds: from the ESE (110 degrees) at 7 MPH (6 knots; 3.1 m/s)
Visibility: 6 or more miles (10+ km)
Ceiling: at least 12,000 feet AGL
Clouds: scattered clouds at 1500 feet AGL
Weather: no significant weather observed at this time

METAR text: VVCR 230230Z 12005KT 9999 SCT015 31/25 Q1014 NOSIG
Conditions at: VVCR (CAM RANH BAY , VN) observed 0230 UTC 23 March 2019
Temperature: 31.0°C (88°F)
Dewpoint: 25.0°C (77°F) [RH = 71%]
Pressure (altimeter): 29.94 inches Hg (1014.0 mb)
Winds: from the ESE (120 degrees) at 6 MPH (5 knots; 2.6 m/s)
Visibility: 6 or more miles (10+ km)
Ceiling: at least 12,000 feet AGL
Clouds: scattered clouds at 1500 feet AGL
Weather: no significant weather observed at this time

METAR text: VVCR 230200Z 12005KT 090V160 9999 SCT015 32/25 Q1014 NOSIG
Conditions at: VVCR (CAM RANH BAY , VN) observed 0200 UTC 23 March 2019
Temperature: 32.0°C (90°F)
Dewpoint: 25.0°C (77°F) [RH = 67%]
Pressure (altimeter): 29.94 inches Hg (1014.0 mb)
Winds: from the ESE (120 degrees) at 6 MPH (5 knots; 2.6 m/s)
Visibility: 6 or more miles (10+ km)
Ceiling: at least 12,000 feet AGL
Clouds: scattered clouds at 1500 feet AGL
Weather: no significant weather observed at this time

METAR text: VVCR 230130Z VRB01KT 9999 FEW015 31/25 Q1014 NOSIG
Conditions at: VVCR (CAM RANH BAY , VN) observed 0130 UTC 23 March 2019
Temperature: 31.0°C (88°F)
Dewpoint: 25.0°C (77°F) [RH = 71%]
Pressure (altimeter): 29.94 inches Hg (1014.0 mb)
Winds: variable direction winds at 1 MPH (1 knots; 0.5 m/s)
Visibility: 6 or more miles (10+ km)
Ceiling: at least 12,000 feet AGL
Clouds: few clouds at 1500 feet AGL
Weather: no significant weather observed at this time

METAR text: VVCR 230100Z VRB02KT 9999 FEW015 30/25 Q1013 NOSIG
Conditions at: VVCR (CAM RANH BAY , VN) observed 0100 UTC 23 March 2019
Temperature: 30.0°C (86°F)
Dewpoint: 25.0°C (77°F) [RH = 75%]
Pressure (altimeter): 29.91 inches Hg (1013.0 mb)
Winds: variable direction winds at 2 MPH (2 knots; 1.0 m/s)
Visibility: 6 or more miles (10+ km)
Ceiling: at least 12,000 feet AGL
Clouds: few clouds at 1500 feet AGL
Weather: no significant weather observed at this time

METAR text: VVCR 230030Z 32003KT 9999 FEW015 30/24 Q1013 NOSIG
Conditions at: VVCR (CAM RANH BAY , VN) observed 0030 UTC 23 March 2019
Temperature: 30.0°C (86°F)
Dewpoint: 24.0°C (75°F) [RH = 70%]
Pressure (altimeter): 29.91 inches Hg (1013.0 mb)
Winds: from the NW (320 degrees) at 3 MPH (3 knots; 1.5 m/s)
Visibility: 6 or more miles (10+ km)
Ceiling: at least 12,000 feet AGL
Clouds: few clouds at 1500 feet AGL
Weather: no significant weather observed at this time

METAR text: VVCR 230000Z 29002KT 9999 FEW015 28/25 Q1013 NOSIG
Conditions at: VVCR (CAM RANH BAY , VN) observed 0000 UTC 23 March 2019
Temperature: 28.0°C (82°F)
Dewpoint: 25.0°C (77°F) [RH = 84%]
Pressure (altimeter): 29.91 inches Hg (1013.0 mb)
Winds: from the WNW (290 degrees) at 2 MPH (2 knots; 1.0 m/s)
Visibility: 6 or more miles (10+ km)
Ceiling: at least 12,000 feet AGL
Clouds: few clouds at 1500 feet AGL
Weather: no significant weather observed at this time

METAR text: VVCR 222330Z VRB01KT 9999 FEW015 27/25 Q1013 NOSIG
Conditions at: VVCR (CAM RANH BAY , VN) observed 2330 UTC 22 March 2019
Temperature: 27.0°C (81°F)
Dewpoint: 25.0°C (77°F) [RH = 89%]
Pressure (altimeter): 29.91 inches Hg (1013.0 mb)
Winds: variable direction winds at 1 MPH (1 knots; 0.5 m/s)
Visibility: 6 or more miles (10+ km)
Ceiling: at least 12,000 feet AGL
Clouds: few clouds at 1500 feet AGL
Weather: no significant weather observed at this time

METAR text: VVCR 222300Z 31001KT 9999 FEW015 26/25 Q1012 NOSIG
Conditions at: VVCR (CAM RANH BAY , VN) observed 2300 UTC 22 March 2019
Temperature: 26.0°C (79°F)
Dewpoint: 25.0°C (77°F) [RH = 94%]
Pressure (altimeter): 29.88 inches Hg (1012.0 mb)
Winds: from the NW (310 degrees) at 1 MPH (1 knots; 0.5 m/s)
Visibility: 6 or more miles (10+ km)
Ceiling: at least 12,000 feet AGL
Clouds: few clouds at 1500 feet AGL
Weather: no significant weather observed at this time

METAR text: VVCR 222230Z 30002KT 9999 FEW015 26/26 Q1012 NOSIG
Conditions at: VVCR (CAM RANH BAY , VN) observed 2230 UTC 22 March 2019
Temperature: 26.0°C (79°F)
Dewpoint: 26.0°C (79°F) [RH = 100%]
Pressure (altimeter): 29.88 inches Hg (1012.0 mb)
Winds: from the WNW (300 degrees) at 2 MPH (2 knots; 1.0 m/s)
Visibility: 6 or more miles (10+ km)
Ceiling: at least 12,000 feet AGL
Clouds: few clouds at 1500 feet AGL
Weather: no significant weather observed at this time

METAR text: VVCR 222200Z VRB01KT 9999 FEW015 27/25 Q1011 NOSIG
Conditions at: VVCR (CAM RANH BAY , VN) observed 2200 UTC 22 March 2019
Temperature: 27.0°C (81°F)
Dewpoint: 25.0°C (77°F) [RH = 89%]
Pressure (altimeter): 29.85 inches Hg (1011.0 mb)
Winds: variable direction winds at 1 MPH (1 knots; 0.5 m/s)
Visibility: 6 or more miles (10+ km)
Ceiling: at least 12,000 feet AGL
Clouds: few clouds at 1500 feet AGL
Weather: no significant weather observed at this time

METAR text: VVCR 222130Z VRB02KT 9999 FEW015 27/25 Q1011 NOSIG
Conditions at: VVCR (CAM RANH BAY , VN) observed 2130 UTC 22 March 2019
Temperature: 27.0°C (81°F)
Dewpoint: 25.0°C (77°F) [RH = 89%]
Pressure (altimeter): 29.85 inches Hg (1011.0 mb)
Winds: variable direction winds at 2 MPH (2 knots; 1.0 m/s)
Visibility: 6 or more miles (10+ km)
Ceiling: at least 12,000 feet AGL
Clouds: few clouds at 1500 feet AGL
Weather: no significant weather observed at this time

METAR text: VVCR 222100Z 29003KT 230V310 9999 FEW015 SCT050 27/25 Q1011 NOSIG
Conditions at: VVCR (CAM RANH BAY , VN) observed 2100 UTC 22 March 2019
Temperature: 27.0°C (81°F)
Dewpoint: 25.0°C (77°F) [RH = 89%]
Pressure (altimeter): 29.85 inches Hg (1011.0 mb)
Winds: from the WNW (290 degrees) at 3 MPH (3 knots; 1.5 m/s)
Visibility: 6 or more miles (10+ km)
Ceiling: at least 12,000 feet AGL
Clouds: few clouds at 1500 feet AGL
scattered clouds at 5000 feet AGL
Weather: no significant weather observed at this time

METAR text: VVCR 222030Z 25003KT 9999 FEW015 SCT050 27/25 Q1011 NOSIG
Conditions at: VVCR (CAM RANH BAY , VN) observed 2030 UTC 22 March 2019
Temperature: 27.0°C (81°F)
Dewpoint: 25.0°C (77°F) [RH = 89%]
Pressure (altimeter): 29.85 inches Hg (1011.0 mb)
Winds: from the WSW (250 degrees) at 3 MPH (3 knots; 1.5 m/s)
Visibility: 6 or more miles (10+ km)
Ceiling: at least 12,000 feet AGL
Clouds: few clouds at 1500 feet AGL
scattered clouds at 5000 feet AGL
Weather: no significant weather observed at this time

METAR text: VVCR 222000Z 18001KT 9999 FEW015 SCT050 28/25 Q1011 NOSIG
Conditions at: VVCR (CAM RANH BAY , VN) observed 2000 UTC 22 March 2019
Temperature: 28.0°C (82°F)
Dewpoint: 25.0°C (77°F) [RH = 84%]
Pressure (altimeter): 29.85 inches Hg (1011.0 mb)
Winds: from the S (180 degrees) at 1 MPH (1 knots; 0.5 m/s)
Visibility: 6 or more miles (10+ km)
Ceiling: at least 12,000 feet AGL
Clouds: few clouds at 1500 feet AGL
scattered clouds at 5000 feet AGL
Weather: no significant weather observed at this time

METAR text: VVCR 221930Z 18003KT 9999 FEW015 SCT050 28/25 Q1010 NOSIG
Conditions at: VVCR (CAM RANH BAY , VN) observed 1930 UTC 22 March 2019
Temperature: 28.0°C (82°F)
Dewpoint: 25.0°C (77°F) [RH = 84%]
Pressure (altimeter): 29.82 inches Hg (1010.0 mb)
Winds: from the S (180 degrees) at 3 MPH (3 knots; 1.5 m/s)
Visibility: 6 or more miles (10+ km)
Ceiling: at least 12,000 feet AGL
Clouds: few clouds at 1500 feet AGL
scattered clouds at 5000 feet AGL
Weather: no significant weather observed at this time

METAR text: VVCR 221900Z 20002KT 9999 FEW015 SCT050 28/25 Q1011 NOSIG
Conditions at: VVCR (CAM RANH BAY , VN) observed 1900 UTC 22 March 2019
Temperature: 28.0°C (82°F)
Dewpoint: 25.0°C (77°F) [RH = 84%]
Pressure (altimeter): 29.85 inches Hg (1011.0 mb)
Winds: from the SSW (200 degrees) at 2 MPH (2 knots; 1.0 m/s)
Visibility: 6 or more miles (10+ km)
Ceiling: at least 12,000 feet AGL
Clouds: few clouds at 1500 feet AGL
scattered clouds at 5000 feet AGL
Weather: no significant weather observed at this time

METAR text: VVCR 221830Z 17002KT 9999 FEW015 SCT050 28/25 Q1011 NOSIG
Conditions at: VVCR (CAM RANH BAY , VN) observed 1830 UTC 22 March 2019
Temperature: 28.0°C (82°F)
Dewpoint: 25.0°C (77°F) [RH = 84%]
Pressure (altimeter): 29.85 inches Hg (1011.0 mb)
Winds: from the S (170 degrees) at 2 MPH (2 knots; 1.0 m/s)
Visibility: 6 or more miles (10+ km)
Ceiling: at least 12,000 feet AGL
Clouds: few clouds at 1500 feet AGL
scattered clouds at 5000 feet AGL
Weather: no significant weather observed at this time

METAR text: VVCR 221800Z 18002KT 9999 FEW015 SCT050 28/26 Q1011 NOSIG
Conditions at: VVCR (CAM RANH BAY , VN) observed 1800 UTC 22 March 2019
Temperature: 28.0°C (82°F)
Dewpoint: 26.0°C (79°F) [RH = 89%]
Pressure (altimeter): 29.85 inches Hg (1011.0 mb)
Winds: from the S (180 degrees) at 2 MPH (2 knots; 1.0 m/s)
Visibility: 6 or more miles (10+ km)
Ceiling: at least 12,000 feet AGL
Clouds: few clouds at 1500 feet AGL
scattered clouds at 5000 feet AGL
Weather: no significant weather observed at this time

METAR text: VVCR 221730Z 21001KT 9999 FEW015 SCT050 29/25 Q1011 NOSIG
Conditions at: VVCR (CAM RANH BAY , VN) observed 1730 UTC 22 March 2019
Temperature: 29.0°C (84°F)
Dewpoint: 25.0°C (77°F) [RH = 79%]
Pressure (altimeter): 29.85 inches Hg (1011.0 mb)
Winds: from the SSW (210 degrees) at 1 MPH (1 knots; 0.5 m/s)
Visibility: 6 or more miles (10+ km)
Ceiling: at least 12,000 feet AGL
Clouds: few clouds at 1500 feet AGL
scattered clouds at 5000 feet AGL
Weather: no significant weather observed at this time

METAR text: VVCR 221700Z 20002KT 9999 FEW015 SCT050 29/25 Q1012 NOSIG
Conditions at: VVCR (CAM RANH BAY , VN) observed 1700 UTC 22 March 2019
Temperature: 29.0°C (84°F)
Dewpoint: 25.0°C (77°F) [RH = 79%]
Pressure (altimeter): 29.88 inches Hg (1012.0 mb)
Winds: from the SSW (200 degrees) at 2 MPH (2 knots; 1.0 m/s)
Visibility: 6 or more miles (10+ km)
Ceiling: at least 12,000 feet AGL
Clouds: few clouds at 1500 feet AGL
scattered clouds at 5000 feet AGL
Weather: no significant weather observed at this time

METAR text: VVCR 221630Z 21002KT 9999 FEW015 SCT050 28/25 Q1012 NOSIG
Conditions at: VVCR (CAM RANH BAY , VN) observed 1630 UTC 22 March 2019
Temperature: 28.0°C (82°F)
Dewpoint: 25.0°C (77°F) [RH = 84%]
Pressure (altimeter): 29.88 inches Hg (1012.0 mb)
Winds: from the SSW (210 degrees) at 2 MPH (2 knots; 1.0 m/s)
Visibility: 6 or more miles (10+ km)
Ceiling: at least 12,000 feet AGL
Clouds: few clouds at 1500 feet AGL
scattered clouds at 5000 feet AGL
Weather: no significant weather observed at this time

METAR text: VVCR 221600Z 21002KT 9999 FEW015 SCT050 29/25 Q1012 NOSIG
Conditions at: VVCR (CAM RANH BAY , VN) observed 1600 UTC 22 March 2019
Temperature: 29.0°C (84°F)
Dewpoint: 25.0°C (77°F) [RH = 79%]
Pressure (altimeter): 29.88 inches Hg (1012.0 mb)
Winds: from the SSW (210 degrees) at 2 MPH (2 knots; 1.0 m/s)
Visibility: 6 or more miles (10+ km)
Ceiling: at least 12,000 feet AGL
Clouds: few clouds at 1500 feet AGL
scattered clouds at 5000 feet AGL
Weather: no significant weather observed at this time

METAR text: VVCR 221530Z 21001KT 9999 FEW015 SCT050 28/25 Q1012 NOSIG
Conditions at: VVCR (CAM RANH BAY , VN) observed 1530 UTC 22 March 2019
Temperature: 28.0°C (82°F)
Dewpoint: 25.0°C (77°F) [RH = 84%]
Pressure (altimeter): 29.88 inches Hg (1012.0 mb)
Winds: from the SSW (210 degrees) at 1 MPH (1 knots; 0.5 m/s)
Visibility: 6 or more miles (10+ km)
Ceiling: at least 12,000 feet AGL
Clouds: few clouds at 1500 feet AGL
scattered clouds at 5000 feet AGL
Weather: no significant weather observed at this time

METAR text: VVCR 221500Z 19001KT 9999 FEW015 SCT050 28/25 Q1012 NOSIG
Conditions at: VVCR (CAM RANH BAY , VN) observed 1500 UTC 22 March 2019
Temperature: 28.0°C (82°F)
Dewpoint: 25.0°C (77°F) [RH = 84%]
Pressure (altimeter): 29.88 inches Hg (1012.0 mb)
Winds: from the S (190 degrees) at 1 MPH (1 knots; 0.5 m/s)
Visibility: 6 or more miles (10+ km)
Ceiling: at least 12,000 feet AGL
Clouds: few clouds at 1500 feet AGL
scattered clouds at 5000 feet AGL
Weather: no significant weather observed at this time

METAR text: VVCR 221430Z 18001KT 9999 FEW015 SCT050 29/25 Q1012 NOSIG
Conditions at: VVCR (CAM RANH BAY , VN) observed 1430 UTC 22 March 2019
Temperature: 29.0°C (84°F)
Dewpoint: 25.0°C (77°F) [RH = 79%]
Pressure (altimeter): 29.88 inches Hg (1012.0 mb)
Winds: from the S (180 degrees) at 1 MPH (1 knots; 0.5 m/s)
Visibility: 6 or more miles (10+ km)
Ceiling: at least 12,000 feet AGL
Clouds: few clouds at 1500 feet AGL
scattered clouds at 5000 feet AGL
Weather: no significant weather observed at this time

METAR text: VVCR 221400Z VRB01KT 9999 FEW015 29/25 Q1012 NOSIG
Conditions at: VVCR (CAM RANH BAY , VN) observed 1400 UTC 22 March 2019
Temperature: 29.0°C (84°F)
Dewpoint: 25.0°C (77°F) [RH = 79%]
Pressure (altimeter): 29.88 inches Hg (1012.0 mb)
Winds: variable direction winds at 1 MPH (1 knots; 0.5 m/s)
Visibility: 6 or more miles (10+ km)
Ceiling: at least 12,000 feet AGL
Clouds: few clouds at 1500 feet AGL
Weather: no significant weather observed at this time

METAR text: VVCR 221330Z 18001KT 9999 FEW015 29/25 Q1011 NOSIG
Conditions at: VVCR (CAM RANH BAY , VN) observed 1330 UTC 22 March 2019
Temperature: 29.0°C (84°F)
Dewpoint: 25.0°C (77°F) [RH = 79%]
Pressure (altimeter): 29.85 inches Hg (1011.0 mb)
Winds: from the S (180 degrees) at 1 MPH (1 knots; 0.5 m/s)
Visibility: 6 or more miles (10+ km)
Ceiling: at least 12,000 feet AGL
Clouds: few clouds at 1500 feet AGL
Weather: no significant weather observed at this time

METAR text: VVCR 221300Z 18001KT 9999 FEW015 28/24 Q1011 NOSIG
Conditions at: VVCR (CAM RANH BAY , VN) observed 1300 UTC 22 March 2019
Temperature: 28.0°C (82°F)
Dewpoint: 24.0°C (75°F) [RH = 79%]
Pressure (altimeter): 29.85 inches Hg (1011.0 mb)
Winds: from the S (180 degrees) at 1 MPH (1 knots; 0.5 m/s)
Visibility: 6 or more miles (10+ km)
Ceiling: at least 12,000 feet AGL
Clouds: few clouds at 1500 feet AGL
Weather: no significant weather observed at this time

METAR text: VVCR 221230Z 17002KT 9999 FEW015 29/25 Q1011 NOSIG
Conditions at: VVCR (CAM RANH BAY , VN) observed 1230 UTC 22 March 2019
Temperature: 29.0°C (84°F)
Dewpoint: 25.0°C (77°F) [RH = 79%]
Pressure (altimeter): 29.85 inches Hg (1011.0 mb)
Winds: from the S (170 degrees) at 2 MPH (2 knots; 1.0 m/s)
Visibility: 6 or more miles (10+ km)
Ceiling: at least 12,000 feet AGL
Clouds: few clouds at 1500 feet AGL
Weather: no significant weather observed at this time

METAR text: VVCR 221200Z 17003KT 9999 FEW015 29/25 Q1010 NOSIG
Conditions at: VVCR (CAM RANH BAY , VN) observed 1200 UTC 22 March 2019
Temperature: 29.0°C (84°F)
Dewpoint: 25.0°C (77°F) [RH = 79%]
Pressure (altimeter): 29.82 inches Hg (1010.0 mb)
Winds: from the S (170 degrees) at 3 MPH (3 knots; 1.5 m/s)
Visibility: 6 or more miles (10+ km)
Ceiling: at least 12,000 feet AGL
Clouds: few clouds at 1500 feet AGL
Weather: no significant weather observed at this time

METAR text: VVCR 221130Z 18003KT 9999 FEW015 29/25 Q1010 NOSIG
Conditions at: VVCR (CAM RANH BAY , VN) observed 1130 UTC 22 March 2019
Temperature: 29.0°C (84°F)
Dewpoint: 25.0°C (77°F) [RH = 79%]
Pressure (altimeter): 29.82 inches Hg (1010.0 mb)
Winds: from the S (180 degrees) at 3 MPH (3 knots; 1.5 m/s)
Visibility: 6 or more miles (10+ km)
Ceiling: at least 12,000 feet AGL
Clouds: few clouds at 1500 feet AGL
Weather: no significant weather observed at this time

METAR text: VVCR 221100Z 16005KT 9999 FEW015 29/25 Q1010 NOSIG
Conditions at: VVCR (CAM RANH BAY , VN) observed 1100 UTC 22 March 2019
Temperature: 29.0°C (84°F)
Dewpoint: 25.0°C (77°F) [RH = 79%]
Pressure (altimeter): 29.82 inches Hg (1010.0 mb)
Winds: from the SSE (160 degrees) at 6 MPH (5 knots; 2.6 m/s)
Visibility: 6 or more miles (10+ km)
Ceiling: at least 12,000 feet AGL
Clouds: few clouds at 1500 feet AGL
Weather: no significant weather observed at this time

Forecast for: VVCR (CAM RANH BAY , VN)
Text: TAF VVCR 231700Z 2318/2418 VRB03KT 9999 SCT015 SCT050
Forecast period: 1800 UTC 23 March 2019 to 0200 UTC 24 March 2019
Forecast type: FROM: standard forecast or significant change
Winds: variable direction winds at 3 MPH (3 knots; 1.5 m/s)
Visibility: 6 or more miles 10+ km)
Ceiling: at least 12,000 feet AGL
Clouds: scattered clouds at 1500 feet AGL
scattered clouds at 5000 feet AGL
Weather: no significant weather forecast for this period
Text: BECMG 2402/2403 12010KT
Forecast period: 0200 to 1800 UTC 24 March 2019
Forecast type: BECOMING: Conditions expected to become as follows by 0300 UTC 24 March 2019
Winds: from the ESE (120 degrees) at 12 MPH (10 knots; 5.1 m/s)
Visibility: 6 or more miles 10+ km)
Ceiling: at least 12,000 feet AGL
Clouds: scattered clouds at 1500 feet AGL
scattered clouds at 5000 feet AGL
Weather: no significant weather forecast for this period